sensor_id;sensor_type;location;lat;lon;timestamp;P1;durP1;ratioP1;P2;durP2;ratioP2
38053;SDS011;23859;50.672;7.164;2023-07-08T00:00:42;17.15;;;8.02;;
38053;SDS011;23859;50.672;7.164;2023-07-08T00:03:10;15.77;;;8.23;;
38053;SDS011;23859;50.672;7.164;2023-07-08T00:05:36;14.73;;;7.90;;
38053;SDS011;23859;50.672;7.164;2023-07-08T00:08:02;16.08;;;8.57;;
38053;SDS011;23859;50.672;7.164;2023-07-08T00:10:29;14.18;;;8.32;;
38053;SDS011;23859;50.672;7.164;2023-07-08T00:12:56;13.02;;;7.75;;
38053;SDS011;23859;50.672;7.164;2023-07-08T00:15:27;12.48;;;7.47;;
38053;SDS011;23859;50.672;7.164;2023-07-08T00:17:55;14.30;;;8.10;;
38053;SDS011;23859;50.672;7.164;2023-07-08T00:23:23;16.25;;;8.32;;
38053;SDS011;23859;50.672;7.164;2023-07-08T00:25:49;11.63;;;7.55;;
38053;SDS011;23859;50.672;7.164;2023-07-08T00:28:20;14.02;;;8.38;;
38053;SDS011;23859;50.672;7.164;2023-07-08T00:30:46;14.52;;;7.88;;
38053;SDS011;23859;50.672;7.164;2023-07-08T00:33:12;13.25;;;7.72;;
38053;SDS011;23859;50.672;7.164;2023-07-08T00:35:40;16.05;;;7.88;;
38053;SDS011;23859;50.672;7.164;2023-07-08T00:38:23;13.43;;;8.18;;
38053;SDS011;23859;50.672;7.164;2023-07-08T00:43:30;13.93;;;8.17;;
38053;SDS011;23859;50.672;7.164;2023-07-08T00:46:18;13.43;;;8.23;;
38053;SDS011;23859;50.672;7.164;2023-07-08T00:51:34;13.52;;;7.47;;
38053;SDS011;23859;50.672;7.164;2023-07-08T00:54:04;14.50;;;7.53;;
38053;SDS011;23859;50.672;7.164;2023-07-08T00:56:39;13.57;;;8.10;;
38053;SDS011;23859;50.672;7.164;2023-07-08T00:59:07;17.17;;;9.00;;
38053;SDS011;23859;50.672;7.164;2023-07-08T01:01:39;15.25;;;8.02;;
38053;SDS011;23859;50.672;7.164;2023-07-08T01:06:37;11.43;;;6.70;;
38053;SDS011;23859;50.672;7.164;2023-07-08T01:09:07;13.25;;;8.02;;
38053;SDS011;23859;50.672;7.164;2023-07-08T01:11:36;12.55;;;7.20;;
38053;SDS011;23859;50.672;7.164;2023-07-08T01:14:05;13.23;;;7.22;;
38053;SDS011;23859;50.672;7.164;2023-07-08T01:16:35;16.80;;;8.18;;
38053;SDS011;23859;50.672;7.164;2023-07-08T01:19:02;16.33;;;7.65;;
38053;SDS011;23859;50.672;7.164;2023-07-08T01:21:35;15.70;;;7.97;;
38053;SDS011;23859;50.672;7.164;2023-07-08T01:24:05;13.40;;;7.30;;
38053;SDS011;23859;50.672;7.164;2023-07-08T01:26:35;15.20;;;7.20;;
38053;SDS011;23859;50.672;7.164;2023-07-08T01:29:04;13.25;;;7.22;;
38053;SDS011;23859;50.672;7.164;2023-07-08T01:31:32;12.10;;;7.07;;
38053;SDS011;23859;50.672;7.164;2023-07-08T01:33:59;16.67;;;8.07;;
38053;SDS011;23859;50.672;7.164;2023-07-08T01:36:26;14.82;;;7.13;;
38053;SDS011;23859;50.672;7.164;2023-07-08T01:38:59;19.73;;;7.65;;
38053;SDS011;23859;50.672;7.164;2023-07-08T01:41:25;10.98;;;6.93;;
38053;SDS011;23859;50.672;7.164;2023-07-08T01:43:51;14.18;;;7.43;;
38053;SDS011;23859;50.672;7.164;2023-07-08T01:46:18;14.57;;;7.70;;
38053;SDS011;23859;50.672;7.164;2023-07-08T01:48:49;13.57;;;7.22;;
38053;SDS011;23859;50.672;7.164;2023-07-08T01:51:18;14.43;;;7.32;;
38053;SDS011;23859;50.672;7.164;2023-07-08T01:53:44;13.00;;;7.30;;
38053;SDS011;23859;50.672;7.164;2023-07-08T01:56:11;13.95;;;7.68;;
38053;SDS011;23859;50.672;7.164;2023-07-08T01:58:38;14.20;;;7.90;;
38053;SDS011;23859;50.672;7.164;2023-07-08T02:01:05;21.05;;;8.32;;
38053;SDS011;23859;50.672;7.164;2023-07-08T02:03:32;16.80;;;6.93;;
38053;SDS011;23859;50.672;7.164;2023-07-08T02:05:58;14.27;;;7.32;;
38053;SDS011;23859;50.672;7.164;2023-07-08T02:08:25;14.13;;;7.47;;
38053;SDS011;23859;50.672;7.164;2023-07-08T02:10:52;13.07;;;6.75;;
38053;SDS011;23859;50.672;7.164;2023-07-08T02:13:20;13.10;;;7.25;;
38053;SDS011;23859;50.672;7.164;2023-07-08T02:15:48;12.88;;;7.57;;
38053;SDS011;23859;50.672;7.164;2023-07-08T02:18:15;12.10;;;7.03;;
38053;SDS011;23859;50.672;7.164;2023-07-08T02:20:42;13.30;;;7.47;;
38053;SDS011;23859;50.672;7.164;2023-07-08T02:23:08;15.85;;;7.82;;
38053;SDS011;23859;50.672;7.164;2023-07-08T02:25:34;14.55;;;7.88;;
38053;SDS011;23859;50.672;7.164;2023-07-08T02:28:00;12.68;;;7.10;;
38053;SDS011;23859;50.672;7.164;2023-07-08T02:30:26;19.15;;;8.55;;
38053;SDS011;23859;50.672;7.164;2023-07-08T02:32:52;17.00;;;8.43;;
38053;SDS011;23859;50.672;7.164;2023-07-08T02:35:22;17.13;;;8.43;;
38053;SDS011;23859;50.672;7.164;2023-07-08T02:37:53;13.05;;;7.47;;
38053;SDS011;23859;50.672;7.164;2023-07-08T02:40:21;14.73;;;7.78;;
38053;SDS011;23859;50.672;7.164;2023-07-08T02:42:48;11.07;;;6.80;;
38053;SDS011;23859;50.672;7.164;2023-07-08T02:45:15;12.48;;;7.30;;
38053;SDS011;23859;50.672;7.164;2023-07-08T02:47:42;17.67;;;7.85;;
38053;SDS011;23859;50.672;7.164;2023-07-08T02:50:09;13.52;;;8.25;;
38053;SDS011;23859;50.672;7.164;2023-07-08T02:52:36;12.52;;;7.05;;
38053;SDS011;23859;50.672;7.164;2023-07-08T02:55:02;16.63;;;7.97;;
38053;SDS011;23859;50.672;7.164;2023-07-08T02:57:28;15.05;;;7.00;;
38053;SDS011;23859;50.672;7.164;2023-07-08T02:59:54;15.57;;;7.65;;
38053;SDS011;23859;50.672;7.164;2023-07-08T03:02:21;15.52;;;7.95;;
38053;SDS011;23859;50.672;7.164;2023-07-08T03:04:47;18.00;;;8.15;;
38053;SDS011;23859;50.672;7.164;2023-07-08T03:07:15;16.38;;;7.82;;
38053;SDS011;23859;50.672;7.164;2023-07-08T03:09:42;15.73;;;7.70;;
38053;SDS011;23859;50.672;7.164;2023-07-08T03:12:09;13.55;;;7.43;;
38053;SDS011;23859;50.672;7.164;2023-07-08T03:14:36;16.50;;;8.93;;
38053;SDS011;23859;50.672;7.164;2023-07-08T03:17:02;15.18;;;7.30;;
38053;SDS011;23859;50.672;7.164;2023-07-08T03:19:29;15.55;;;7.65;;
38053;SDS011;23859;50.672;7.164;2023-07-08T03:21:57;16.20;;;8.10;;
38053;SDS011;23859;50.672;7.164;2023-07-08T03:24:23;19.08;;;7.60;;
38053;SDS011;23859;50.672;7.164;2023-07-08T03:26:49;15.40;;;8.38;;
38053;SDS011;23859;50.672;7.164;2023-07-08T03:29:19;16.55;;;8.93;;
38053;SDS011;23859;50.672;7.164;2023-07-08T03:31:45;13.23;;;7.50;;
38053;SDS011;23859;50.672;7.164;2023-07-08T03:34:15;14.55;;;8.10;;
38053;SDS011;23859;50.672;7.164;2023-07-08T03:36:43;16.20;;;7.72;;
38053;SDS011;23859;50.672;7.164;2023-07-08T03:39:14;13.38;;;7.55;;
38053;SDS011;23859;50.672;7.164;2023-07-08T03:41:42;15.30;;;8.70;;
38053;SDS011;23859;50.672;7.164;2023-07-08T03:44:09;13.43;;;7.35;;
38053;SDS011;23859;50.672;7.164;2023-07-08T03:46:35;14.63;;;8.70;;
38053;SDS011;23859;50.672;7.164;2023-07-08T03:49:02;15.43;;;8.27;;
38053;SDS011;23859;50.672;7.164;2023-07-08T03:51:34;16.45;;;8.52;;
38053;SDS011;23859;50.672;7.164;2023-07-08T03:54:03;17.92;;;8.32;;
38053;SDS011;23859;50.672;7.164;2023-07-08T03:56:30;17.38;;;7.85;;
38053;SDS011;23859;50.672;7.164;2023-07-08T03:58:57;13.18;;;7.43;;
38053;SDS011;23859;50.672;7.164;2023-07-08T04:01:24;15.40;;;7.60;;
38053;SDS011;23859;50.672;7.164;2023-07-08T04:03:54;14.15;;;7.75;;
38053;SDS011;23859;50.672;7.164;2023-07-08T04:06:22;20.30;;;8.50;;
38053;SDS011;23859;50.672;7.164;2023-07-08T04:08:49;14.02;;;7.70;;
38053;SDS011;23859;50.672;7.164;2023-07-08T04:11:17;15.63;;;8.48;;
38053;SDS011;23859;50.672;7.164;2023-07-08T04:13:44;16.05;;;7.72;;
38053;SDS011;23859;50.672;7.164;2023-07-08T04:16:29;16.88;;;8.38;;
38053;SDS011;23859;50.672;7.164;2023-07-08T04:19:07;17.17;;;7.90;;
38053;SDS011;23859;50.672;7.164;2023-07-08T04:21:39;16.20;;;7.70;;
38053;SDS011;23859;50.672;7.164;2023-07-08T04:24:08;14.32;;;8.25;;
38053;SDS011;23859;50.672;7.164;2023-07-08T04:26:36;14.65;;;7.38;;
38053;SDS011;23859;50.672;7.164;2023-07-08T04:29:04;14.80;;;7.78;;
38053;SDS011;23859;50.672;7.164;2023-07-08T04:31:34;13.18;;;8.10;;
38053;SDS011;23859;50.672;7.164;2023-07-08T04:34:00;13.00;;;7.80;;
38053;SDS011;23859;50.672;7.164;2023-07-08T04:36:26;18.30;;;8.68;;
38053;SDS011;23859;50.672;7.164;2023-07-08T04:38:52;16.25;;;8.13;;
38053;SDS011;23859;50.672;7.164;2023-07-08T04:41:18;15.77;;;7.78;;
38053;SDS011;23859;50.672;7.164;2023-07-08T04:43:44;17.20;;;8.38;;
38053;SDS011;23859;50.672;7.164;2023-07-08T04:46:14;14.55;;;7.82;;
38053;SDS011;23859;50.672;7.164;2023-07-08T04:49:05;14.82;;;7.68;;
38053;SDS011;23859;50.672;7.164;2023-07-08T04:51:32;16.23;;;8.45;;
38053;SDS011;23859;50.672;7.164;2023-07-08T04:53:58;16.58;;;8.43;;
38053;SDS011;23859;50.672;7.164;2023-07-08T04:56:25;15.07;;;7.60;;
38053;SDS011;23859;50.672;7.164;2023-07-08T04:59:01;14.93;;;8.52;;
38053;SDS011;23859;50.672;7.164;2023-07-08T05:01:27;15.90;;;7.90;;
38053;SDS011;23859;50.672;7.164;2023-07-08T05:03:54;13.73;;;7.75;;
38053;SDS011;23859;50.672;7.164;2023-07-08T05:06:20;19.13;;;8.73;;
38053;SDS011;23859;50.672;7.164;2023-07-08T05:08:46;16.67;;;8.48;;
38053;SDS011;23859;50.672;7.164;2023-07-08T05:11:12;12.88;;;7.50;;
38053;SDS011;23859;50.672;7.164;2023-07-08T05:13:38;15.23;;;7.80;;
38053;SDS011;23859;50.672;7.164;2023-07-08T05:16:04;12.50;;;7.65;;
38053;SDS011;23859;50.672;7.164;2023-07-08T05:18:30;16.77;;;8.45;;
38053;SDS011;23859;50.672;7.164;2023-07-08T05:20:57;14.82;;;8.48;;
38053;SDS011;23859;50.672;7.164;2023-07-08T05:23:23;12.13;;;7.18;;
38053;SDS011;23859;50.672;7.164;2023-07-08T05:25:49;14.75;;;7.43;;
38053;SDS011;23859;50.672;7.164;2023-07-08T05:28:15;17.50;;;7.53;;
38053;SDS011;23859;50.672;7.164;2023-07-08T05:30:42;14.45;;;8.57;;
38053;SDS011;23859;50.672;7.164;2023-07-08T05:33:08;14.38;;;7.57;;
38053;SDS011;23859;50.672;7.164;2023-07-08T05:35:34;16.02;;;7.38;;
38053;SDS011;23859;50.672;7.164;2023-07-08T05:38:01;15.27;;;7.63;;
38053;SDS011;23859;50.672;7.164;2023-07-08T05:40:27;18.02;;;8.25;;
38053;SDS011;23859;50.672;7.164;2023-07-08T05:42:53;12.93;;;7.00;;
38053;SDS011;23859;50.672;7.164;2023-07-08T05:45:20;16.00;;;8.13;;
38053;SDS011;23859;50.672;7.164;2023-07-08T05:47:46;16.75;;;7.45;;
38053;SDS011;23859;50.672;7.164;2023-07-08T05:50:12;15.25;;;7.60;;
38053;SDS011;23859;50.672;7.164;2023-07-08T05:52:38;11.43;;;6.65;;
38053;SDS011;23859;50.672;7.164;2023-07-08T05:55:04;13.77;;;6.97;;
38053;SDS011;23859;50.672;7.164;2023-07-08T05:57:31;13.02;;;6.68;;
38053;SDS011;23859;50.672;7.164;2023-07-08T05:59:57;15.13;;;7.35;;
38053;SDS011;23859;50.672;7.164;2023-07-08T06:02:23;12.23;;;7.20;;
38053;SDS011;23859;50.672;7.164;2023-07-08T06:04:50;14.95;;;7.32;;
38053;SDS011;23859;50.672;7.164;2023-07-08T06:07:17;13.65;;;6.57;;
38053;SDS011;23859;50.672;7.164;2023-07-08T06:09:43;13.35;;;6.80;;
38053;SDS011;23859;50.672;7.164;2023-07-08T06:12:09;11.30;;;6.40;;
38053;SDS011;23859;50.672;7.164;2023-07-08T06:14:36;11.43;;;6.05;;
38053;SDS011;23859;50.672;7.164;2023-07-08T06:17:03;9.27;;;6.03;;
38053;SDS011;23859;50.672;7.164;2023-07-08T06:19:30;13.07;;;6.00;;
38053;SDS011;23859;50.672;7.164;2023-07-08T06:21:57;10.52;;;5.97;;
38053;SDS011;23859;50.672;7.164;2023-07-08T06:24:23;13.45;;;6.45;;
38053;SDS011;23859;50.672;7.164;2023-07-08T06:26:49;10.98;;;6.18;;
38053;SDS011;23859;50.672;7.164;2023-07-08T06:29:15;9.88;;;5.88;;
38053;SDS011;23859;50.672;7.164;2023-07-08T06:31:41;9.57;;;6.18;;
38053;SDS011;23859;50.672;7.164;2023-07-08T06:34:07;13.05;;;5.97;;
38053;SDS011;23859;50.672;7.164;2023-07-08T06:36:33;10.18;;;5.80;;
38053;SDS011;23859;50.672;7.164;2023-07-08T06:39:00;9.60;;;5.80;;
38053;SDS011;23859;50.672;7.164;2023-07-08T06:41:26;10.98;;;6.30;;
38053;SDS011;23859;50.672;7.164;2023-07-08T06:43:52;11.23;;;6.22;;
38053;SDS011;23859;50.672;7.164;2023-07-08T06:46:18;11.85;;;5.97;;
38053;SDS011;23859;50.672;7.164;2023-07-08T06:48:45;10.05;;;5.63;;
38053;SDS011;23859;50.672;7.164;2023-07-08T06:51:11;8.95;;;5.40;;
38053;SDS011;23859;50.672;7.164;2023-07-08T06:53:37;10.68;;;5.45;;
38053;SDS011;23859;50.672;7.164;2023-07-08T06:56:03;8.68;;;4.88;;
38053;SDS011;23859;50.672;7.164;2023-07-08T06:58:29;12.73;;;5.80;;
38053;SDS011;23859;50.672;7.164;2023-07-08T07:00:55;8.73;;;5.25;;
38053;SDS011;23859;50.672;7.164;2023-07-08T07:03:21;13.23;;;6.00;;
38053;SDS011;23859;50.672;7.164;2023-07-08T07:05:47;9.75;;;5.60;;
38053;SDS011;23859;50.672;7.164;2023-07-08T07:08:13;8.63;;;5.13;;
38053;SDS011;23859;50.672;7.164;2023-07-08T07:10:39;9.40;;;5.65;;
38053;SDS011;23859;50.672;7.164;2023-07-08T07:13:05;9.75;;;5.80;;
38053;SDS011;23859;50.672;7.164;2023-07-08T07:15:31;9.18;;;5.53;;
38053;SDS011;23859;50.672;7.164;2023-07-08T07:17:57;9.10;;;5.53;;
38053;SDS011;23859;50.672;7.164;2023-07-08T07:20:24;8.45;;;5.20;;
38053;SDS011;23859;50.672;7.164;2023-07-08T07:22:50;8.70;;;5.78;;
38053;SDS011;23859;50.672;7.164;2023-07-08T07:25:17;8.25;;;5.43;;
38053;SDS011;23859;50.672;7.164;2023-07-08T07:27:43;8.90;;;4.90;;
38053;SDS011;23859;50.672;7.164;2023-07-08T07:30:09;7.32;;;5.07;;
38053;SDS011;23859;50.672;7.164;2023-07-08T07:32:40;10.15;;;5.18;;
38053;SDS011;23859;50.672;7.164;2023-07-08T07:35:08;9.40;;;5.72;;
38053;SDS011;23859;50.672;7.164;2023-07-08T07:37:38;9.93;;;5.55;;
38053;SDS011;23859;50.672;7.164;2023-07-08T07:40:08;8.02;;;5.25;;
38053;SDS011;23859;50.672;7.164;2023-07-08T07:42:38;8.07;;;5.10;;
38053;SDS011;23859;50.672;7.164;2023-07-08T07:45:05;7.40;;;5.35;;
38053;SDS011;23859;50.672;7.164;2023-07-08T07:47:32;11.02;;;5.40;;
38053;SDS011;23859;50.672;7.164;2023-07-08T07:49:58;8.20;;;5.00;;
38053;SDS011;23859;50.672;7.164;2023-07-08T07:52:24;9.63;;;5.20;;
38053;SDS011;23859;50.672;7.164;2023-07-08T07:54:51;7.57;;;4.90;;
38053;SDS011;23859;50.672;7.164;2023-07-08T07:57:18;7.68;;;5.20;;
38053;SDS011;23859;50.672;7.164;2023-07-08T07:59:45;8.65;;;5.03;;
38053;SDS011;23859;50.672;7.164;2023-07-08T08:02:12;7.68;;;5.07;;
38053;SDS011;23859;50.672;7.164;2023-07-08T08:04:38;7.05;;;5.53;;
38053;SDS011;23859;50.672;7.164;2023-07-08T08:07:04;8.50;;;4.97;;
38053;SDS011;23859;50.672;7.164;2023-07-08T08:09:30;7.50;;;5.45;;
38053;SDS011;23859;50.672;7.164;2023-07-08T08:11:56;8.68;;;5.60;;
38053;SDS011;23859;50.672;7.164;2023-07-08T08:14:22;7.60;;;4.93;;
38053;SDS011;23859;50.672;7.164;2023-07-08T08:16:48;8.05;;;4.75;;
38053;SDS011;23859;50.672;7.164;2023-07-08T08:19:15;6.35;;;4.55;;
38053;SDS011;23859;50.672;7.164;2023-07-08T08:21:41;8.98;;;4.80;;
38053;SDS011;23859;50.672;7.164;2023-07-08T08:24:07;6.97;;;4.40;;
38053;SDS011;23859;50.672;7.164;2023-07-08T08:26:33;7.30;;;5.05;;
38053;SDS011;23859;50.672;7.164;2023-07-08T08:29:00;7.35;;;4.32;;
38053;SDS011;23859;50.672;7.164;2023-07-08T08:31:26;7.43;;;4.65;;
38053;SDS011;23859;50.672;7.164;2023-07-08T08:33:52;7.88;;;4.65;;
38053;SDS011;23859;50.672;7.164;2023-07-08T08:36:18;7.60;;;4.82;;
38053;SDS011;23859;50.672;7.164;2023-07-08T08:38:46;7.63;;;4.35;;
38053;SDS011;23859;50.672;7.164;2023-07-08T08:41:12;7.40;;;4.40;;
38053;SDS011;23859;50.672;7.164;2023-07-08T08:43:41;7.05;;;3.83;;
38053;SDS011;23859;50.672;7.164;2023-07-08T08:46:10;8.25;;;4.43;;
38053;SDS011;23859;50.672;7.164;2023-07-08T08:51:43;6.68;;;4.25;;
38053;SDS011;23859;50.672;7.164;2023-07-08T08:54:09;8.05;;;4.25;;
38053;SDS011;23859;50.672;7.164;2023-07-08T08:56:38;5.70;;;4.00;;
38053;SDS011;23859;50.672;7.164;2023-07-08T08:59:27;8.05;;;3.85;;
38053;SDS011;23859;50.672;7.164;2023-07-08T09:01:59;10.60;;;4.35;;
38053;SDS011;23859;50.672;7.164;2023-07-08T09:04:43;7.20;;;4.05;;
38053;SDS011;23859;50.672;7.164;2023-07-08T09:07:14;7.60;;;3.90;;
38053;SDS011;23859;50.672;7.164;2023-07-08T09:09:53;10.13;;;4.07;;
38053;SDS011;23859;50.672;7.164;2023-07-08T09:12:27;8.32;;;4.88;;
38053;SDS011;23859;50.672;7.164;2023-07-08T09:14:56;5.75;;;4.22;;
38053;SDS011;23859;50.672;7.164;2023-07-08T09:23:00;6.40;;;3.85;;
38053;SDS011;23859;50.672;7.164;2023-07-08T09:25:46;7.55;;;4.32;;
38053;SDS011;23859;50.672;7.164;2023-07-08T09:28:38;5.53;;;4.28;;
38053;SDS011;23859;50.672;7.164;2023-07-08T09:31:08;7.38;;;4.35;;
38053;SDS011;23859;50.672;7.164;2023-07-08T09:36:47;10.55;;;4.40;;
38053;SDS011;23859;50.672;7.164;2023-07-08T09:39:18;8.15;;;4.85;;
38053;SDS011;23859;50.672;7.164;2023-07-08T09:41:46;8.65;;;4.85;;
38053;SDS011;23859;50.672;7.164;2023-07-08T09:44:15;14.25;;;5.25;;
38053;SDS011;23859;50.672;7.164;2023-07-08T09:46:42;6.60;;;4.20;;
38053;SDS011;23859;50.672;7.164;2023-07-08T09:49:09;8.43;;;4.97;;
38053;SDS011;23859;50.672;7.164;2023-07-08T09:51:47;8.15;;;4.88;;
38053;SDS011;23859;50.672;7.164;2023-07-08T09:54:15;7.85;;;4.70;;
38053;SDS011;23859;50.672;7.164;2023-07-08T09:56:43;8.27;;;4.70;;
38053;SDS011;23859;50.672;7.164;2023-07-08T09:59:14;9.88;;;4.80;;
38053;SDS011;23859;50.672;7.164;2023-07-08T10:01:43;8.52;;;4.85;;
38053;SDS011;23859;50.672;7.164;2023-07-08T10:04:09;9.98;;;4.70;;
38053;SDS011;23859;50.672;7.164;2023-07-08T10:06:37;7.90;;;4.45;;
38053;SDS011;23859;50.672;7.164;2023-07-08T10:09:10;6.85;;;4.80;;
38053;SDS011;23859;50.672;7.164;2023-07-08T10:11:47;6.95;;;4.35;;
38053;SDS011;23859;50.672;7.164;2023-07-08T10:14:25;8.88;;;4.35;;
38053;SDS011;23859;50.672;7.164;2023-07-08T10:17:19;9.07;;;4.93;;
38053;SDS011;23859;50.672;7.164;2023-07-08T10:19:46;8.80;;;4.43;;
38053;SDS011;23859;50.672;7.164;2023-07-08T10:22:17;7.10;;;4.57;;
38053;SDS011;23859;50.672;7.164;2023-07-08T10:27:37;11.18;;;4.72;;
38053;SDS011;23859;50.672;7.164;2023-07-08T10:30:19;9.43;;;4.82;;
38053;SDS011;23859;50.672;7.164;2023-07-08T10:35:44;9.57;;;4.90;;
38053;SDS011;23859;50.672;7.164;2023-07-08T10:44:18;8.13;;;4.03;;
38053;SDS011;23859;50.672;7.164;2023-07-08T10:47:00;7.72;;;4.70;;
38053;SDS011;23859;50.672;7.164;2023-07-08T10:55:15;8.48;;;4.75;;
38053;SDS011;23859;50.672;7.164;2023-07-08T10:57:39;9.65;;;4.32;;
38053;SDS011;23859;50.672;7.164;2023-07-08T11:03:20;7.07;;;4.43;;
38053;SDS011;23859;50.672;7.164;2023-07-08T11:08:48;7.88;;;4.75;;
38053;SDS011;23859;50.672;7.164;2023-07-08T11:11:27;11.43;;;5.10;;
38053;SDS011;23859;50.672;7.164;2023-07-08T11:14:11;10.90;;;4.93;;
38053;SDS011;23859;50.672;7.164;2023-07-08T11:16:47;7.60;;;4.75;;
38053;SDS011;23859;50.672;7.164;2023-07-08T11:19:24;7.75;;;4.35;;
38053;SDS011;23859;50.672;7.164;2023-07-08T11:21:57;10.45;;;4.55;;
38053;SDS011;23859;50.672;7.164;2023-07-08T11:24:35;6.55;;;4.38;;
38053;SDS011;23859;50.672;7.164;2023-07-08T11:27:11;8.82;;;4.38;;
38053;SDS011;23859;50.672;7.164;2023-07-08T11:29:53;7.32;;;4.38;;
38053;SDS011;23859;50.672;7.164;2023-07-08T11:32:23;8.93;;;4.55;;
38053;SDS011;23859;50.672;7.164;2023-07-08T11:34:53;7.78;;;4.25;;
38053;SDS011;23859;50.672;7.164;2023-07-08T11:37:22;8.45;;;4.88;;
38053;SDS011;23859;50.672;7.164;2023-07-08T11:39:54;7.45;;;4.20;;
38053;SDS011;23859;50.672;7.164;2023-07-08T11:42:39;7.28;;;4.38;;
38053;SDS011;23859;50.672;7.164;2023-07-08T11:48:03;7.85;;;4.45;;
38053;SDS011;23859;50.672;7.164;2023-07-08T11:50:49;10.65;;;4.10;;
38053;SDS011;23859;50.672;7.164;2023-07-08T12:06:42;7.22;;;4.38;;
38053;SDS011;23859;50.672;7.164;2023-07-08T12:09:14;8.73;;;4.57;;
38053;SDS011;23859;50.672;7.164;2023-07-08T12:12:02;7.78;;;4.20;;
38053;SDS011;23859;50.672;7.164;2023-07-08T12:14:39;7.18;;;4.28;;
38053;SDS011;23859;50.672;7.164;2023-07-08T12:17:08;7.53;;;4.30;;
38053;SDS011;23859;50.672;7.164;2023-07-08T12:19:37;8.90;;;4.15;;
38053;SDS011;23859;50.672;7.164;2023-07-08T12:22:09;6.60;;;3.90;;
38053;SDS011;23859;50.672;7.164;2023-07-08T12:24:37;7.82;;;4.30;;
38053;SDS011;23859;50.672;7.164;2023-07-08T12:27:04;10.60;;;4.95;;
38053;SDS011;23859;50.672;7.164;2023-07-08T12:29:31;9.27;;;5.65;;
38053;SDS011;23859;50.672;7.164;2023-07-08T12:31:57;10.40;;;4.90;;
38053;SDS011;23859;50.672;7.164;2023-07-08T12:34:24;11.73;;;5.22;;
38053;SDS011;23859;50.672;7.164;2023-07-08T12:36:51;7.00;;;4.47;;
38053;SDS011;23859;50.672;7.164;2023-07-08T12:39:17;10.15;;;4.68;;
38053;SDS011;23859;50.672;7.164;2023-07-08T12:41:45;8.52;;;4.72;;
38053;SDS011;23859;50.672;7.164;2023-07-08T12:44:22;8.95;;;4.97;;
38053;SDS011;23859;50.672;7.164;2023-07-08T12:46:52;8.15;;;4.35;;
38053;SDS011;23859;50.672;7.164;2023-07-08T12:49:20;12.35;;;5.75;;
38053;SDS011;23859;50.672;7.164;2023-07-08T12:51:51;9.95;;;5.72;;
38053;SDS011;23859;50.672;7.164;2023-07-08T12:54:17;14.30;;;6.78;;
38053;SDS011;23859;50.672;7.164;2023-07-08T12:56:44;6.30;;;4.50;;
38053;SDS011;23859;50.672;7.164;2023-07-08T12:59:12;8.70;;;4.63;;
38053;SDS011;23859;50.672;7.164;2023-07-08T13:01:45;8.75;;;5.80;;
38053;SDS011;23859;50.672;7.164;2023-07-08T13:04:13;9.07;;;5.15;;
38053;SDS011;23859;50.672;7.164;2023-07-08T13:06:40;8.93;;;5.32;;
38053;SDS011;23859;50.672;7.164;2023-07-08T13:11:51;9.40;;;5.18;;
38053;SDS011;23859;50.672;7.164;2023-07-08T13:14:20;8.48;;;5.78;;
38053;SDS011;23859;50.672;7.164;2023-07-08T13:16:49;8.63;;;5.40;;
38053;SDS011;23859;50.672;7.164;2023-07-08T13:19:15;9.73;;;6.30;;
38053;SDS011;23859;50.672;7.164;2023-07-08T13:21:42;12.80;;;5.68;;
38053;SDS011;23859;50.672;7.164;2023-07-08T13:24:11;10.32;;;5.30;;
38053;SDS011;23859;50.672;7.164;2023-07-08T13:26:37;15.82;;;5.75;;
38053;SDS011;23859;50.672;7.164;2023-07-08T13:29:06;12.07;;;5.82;;
38053;SDS011;23859;50.672;7.164;2023-07-08T13:34:06;10.65;;;5.35;;
38053;SDS011;23859;50.672;7.164;2023-07-08T13:36:34;10.52;;;5.60;;
38053;SDS011;23859;50.672;7.164;2023-07-08T13:39:07;10.68;;;4.95;;
38053;SDS011;23859;50.672;7.164;2023-07-08T13:41:41;8.63;;;5.07;;
38053;SDS011;23859;50.672;7.164;2023-07-08T13:44:09;8.98;;;5.28;;
38053;SDS011;23859;50.672;7.164;2023-07-08T13:46:46;10.05;;;5.47;;
38053;SDS011;23859;50.672;7.164;2023-07-08T13:54:40;11.98;;;4.85;;
38053;SDS011;23859;50.672;7.164;2023-07-08T13:57:15;9.75;;;4.78;;
38053;SDS011;23859;50.672;7.164;2023-07-08T13:59:43;11.93;;;4.95;;
38053;SDS011;23859;50.672;7.164;2023-07-08T14:02:19;7.93;;;4.53;;
38053;SDS011;23859;50.672;7.164;2023-07-08T14:04:48;14.48;;;5.18;;
38053;SDS011;23859;50.672;7.164;2023-07-08T14:07:17;7.18;;;4.80;;
38053;SDS011;23859;50.672;7.164;2023-07-08T14:09:45;9.55;;;5.47;;
38053;SDS011;23859;50.672;7.164;2023-07-08T14:12:11;7.88;;;4.80;;
38053;SDS011;23859;50.672;7.164;2023-07-08T14:14:37;6.63;;;5.07;;
38053;SDS011;23859;50.672;7.164;2023-07-08T14:17:03;8.48;;;4.45;;
38053;SDS011;23859;50.672;7.164;2023-07-08T14:19:32;7.00;;;4.38;;
38053;SDS011;23859;50.672;7.164;2023-07-08T14:24:46;13.40;;;5.38;;
38053;SDS011;23859;50.672;7.164;2023-07-08T14:27:13;11.13;;;5.45;;
38053;SDS011;23859;50.672;7.164;2023-07-08T14:29:40;7.18;;;4.65;;
38053;SDS011;23859;50.672;7.164;2023-07-08T14:32:20;6.90;;;4.63;;
38053;SDS011;23859;50.672;7.164;2023-07-08T14:37:40;8.90;;;4.30;;
38053;SDS011;23859;50.672;7.164;2023-07-08T14:40:18;11.30;;;5.50;;
38053;SDS011;23859;50.672;7.164;2023-07-08T14:42:55;9.77;;;5.28;;
38053;SDS011;23859;50.672;7.164;2023-07-08T14:45:31;7.07;;;4.78;;
38053;SDS011;23859;50.672;7.164;2023-07-08T14:48:11;8.95;;;4.88;;
38053;SDS011;23859;50.672;7.164;2023-07-08T14:50:38;8.30;;;4.57;;
38053;SDS011;23859;50.672;7.164;2023-07-08T14:53:05;9.32;;;4.75;;
38053;SDS011;23859;50.672;7.164;2023-07-08T14:55:32;8.40;;;5.35;;
38053;SDS011;23859;50.672;7.164;2023-07-08T14:57:58;8.35;;;5.13;;
38053;SDS011;23859;50.672;7.164;2023-07-08T15:00:25;9.32;;;5.25;;
38053;SDS011;23859;50.672;7.164;2023-07-08T15:02:51;6.90;;;4.70;;
38053;SDS011;23859;50.672;7.164;2023-07-08T15:05:19;9.65;;;4.53;;
38053;SDS011;23859;50.672;7.164;2023-07-08T15:07:48;10.63;;;4.43;;
38053;SDS011;23859;50.672;7.164;2023-07-08T15:10:15;9.35;;;4.72;;
38053;SDS011;23859;50.672;7.164;2023-07-08T15:12:42;10.57;;;5.40;;
38053;SDS011;23859;50.672;7.164;2023-07-08T15:15:27;13.57;;;4.90;;
38053;SDS011;23859;50.672;7.164;2023-07-08T15:17:56;7.68;;;4.50;;
38053;SDS011;23859;50.672;7.164;2023-07-08T15:20:23;10.50;;;5.15;;
38053;SDS011;23859;50.672;7.164;2023-07-08T15:22:49;10.43;;;4.43;;
38053;SDS011;23859;50.672;7.164;2023-07-08T15:25:16;9.90;;;4.85;;
38053;SDS011;23859;50.672;7.164;2023-07-08T15:27:47;9.68;;;4.85;;
38053;SDS011;23859;50.672;7.164;2023-07-08T15:30:21;8.75;;;4.63;;
38053;SDS011;23859;50.672;7.164;2023-07-08T15:32:51;6.93;;;4.80;;
38053;SDS011;23859;50.672;7.164;2023-07-08T15:35:19;8.48;;;5.85;;
38053;SDS011;23859;50.672;7.164;2023-07-08T15:37:50;12.30;;;4.75;;
38053;SDS011;23859;50.672;7.164;2023-07-08T15:40:18;6.53;;;4.40;;
38053;SDS011;23859;50.672;7.164;2023-07-08T15:42:48;10.85;;;5.32;;
38053;SDS011;23859;50.672;7.164;2023-07-08T15:45:22;12.52;;;4.90;;
38053;SDS011;23859;50.672;7.164;2023-07-08T15:47:50;8.63;;;5.20;;
38053;SDS011;23859;50.672;7.164;2023-07-08T15:50:17;7.38;;;4.85;;
38053;SDS011;23859;50.672;7.164;2023-07-08T15:52:45;8.65;;;5.05;;
38053;SDS011;23859;50.672;7.164;2023-07-08T15:55:11;10.40;;;5.65;;
38053;SDS011;23859;50.672;7.164;2023-07-08T15:57:50;16.67;;;12.98;;
38053;SDS011;23859;50.672;7.164;2023-07-08T16:00:23;6.78;;;5.80;;
38053;SDS011;23859;50.672;7.164;2023-07-08T16:02:53;8.32;;;5.03;;
38053;SDS011;23859;50.672;7.164;2023-07-08T16:05:22;9.63;;;4.53;;
38053;SDS011;23859;50.672;7.164;2023-07-08T16:07:49;8.52;;;4.45;;
38053;SDS011;23859;50.672;7.164;2023-07-08T16:10:16;8.20;;;4.95;;